Red Cliff Indian Reservation, Wisconsin
Current Conditions -  °F | °C
As of 9:53 AM on Monday 22 Dec 2014 (Local Time) from KASX Reporting Station
Haze Haze  
Wind Chill: 32°   Ceiling: 1100
Heat Index: 36°   Visibility: 5mi
Dew Point: 33°   Wind: 5mph
Humidity: 89%   Direction: 160°SSE
Pressure: 29.77"   Gusts: NA
Location:  46.543°N, 90.8706°W
Report Text: KASX 221553Z AUTO 16004KT 5SM BR OVC011 02/01 A2977 RMK AO2 SLP090 T00220006
Loading
Personal Weather Stations






























Interactive Weather Map New forecast layout! Learn more

10-Day Weather Forecast

Advertisements
Track Severe Weather on mobile